createdAt,value
2022-08-12T00:00:35.142Z,3.85
2022-08-12T00:03:20.738Z,4.60
2022-08-12T00:06:06.515Z,4.07
2022-08-12T00:08:52.751Z,4.03
2022-08-12T00:11:38.694Z,3.92
2022-08-12T00:14:24.272Z,4.00
2022-08-12T00:17:09.677Z,4.72
2022-08-12T00:19:54.558Z,5.15
2022-08-12T00:22:39.922Z,4.28
2022-08-12T00:26:05.645Z,4.95
2022-08-12T00:28:30.527Z,3.83
2022-08-12T00:31:15.540Z,4.75
2022-08-12T00:34:00.691Z,4.72
2022-08-12T00:36:50.317Z,4.80
2022-08-12T00:39:36.229Z,4.68
2022-08-12T00:42:12.277Z,5.00
2022-08-12T00:44:43.828Z,4.60
2022-08-12T00:47:25.535Z,5.38
2022-08-12T00:52:21.073Z,4.40
2022-08-12T00:54:52.948Z,4.40
2022-08-12T00:57:22.611Z,5.07
2022-08-12T00:59:53.285Z,5.00
2022-08-12T01:02:27.652Z,4.85
2022-08-12T01:05:18.366Z,5.10
2022-08-12T01:08:04.862Z,4.70
2022-08-12T01:10:51.338Z,4.60
2022-08-12T01:13:19.953Z,4.50
2022-08-12T01:15:53.277Z,4.72
2022-08-12T01:18:21.244Z,4.97
2022-08-12T01:21:08.833Z,5.43
2022-08-12T01:23:46.492Z,5.43
2022-08-12T01:26:23.807Z,4.68
2022-08-12T01:28:55.298Z,4.90
2022-08-12T01:31:23.614Z,5.13
2022-08-12T01:34:28.753Z,5.43
2022-08-12T01:36:58.639Z,5.18
2022-08-12T01:39:30.230Z,4.88
2022-08-12T01:42:00.259Z,5.68
2022-08-12T01:44:28.728Z,5.40
2022-08-12T01:47:09.852Z,5.15
2022-08-12T01:49:43.091Z,5.28
2022-08-12T01:52:27.191Z,5.40
2022-08-12T01:54:53.764Z,5.30
2022-08-12T01:57:57.822Z,5.40
2022-08-12T02:00:55.397Z,4.68
2022-08-12T02:03:50.583Z,5.22
2022-08-12T02:06:48.658Z,4.78
2022-08-12T02:09:39.766Z,5.10
2022-08-12T02:12:27.606Z,5.03
2022-08-12T02:15:12.938Z,4.95
2022-08-12T02:17:56.032Z,6.55
2022-08-12T02:20:35.482Z,5.65
2022-08-12T02:23:16.070Z,5.83
2022-08-12T02:25:44.957Z,5.43
2022-08-12T02:28:11.698Z,5.43
2022-08-12T02:30:42.298Z,6.13
2022-08-12T02:33:10.398Z,6.05
2022-08-12T02:35:37.505Z,6.18
2022-08-12T02:38:06.834Z,5.70
2022-08-12T02:40:36.527Z,5.97
2022-08-12T02:43:14.579Z,5.78
2022-08-12T02:45:55.581Z,5.43
2022-08-12T02:48:27.105Z,5.80
2022-08-12T02:50:58.095Z,7.13
2022-08-12T02:53:24.583Z,5.60
2022-08-12T02:55:50.996Z,6.35
2022-08-12T02:58:19.832Z,6.20
2022-08-12T03:00:51.951Z,6.57
2022-08-12T03:03:19.389Z,6.63
2022-08-12T03:05:59.065Z,6.68
2022-08-12T03:08:31.832Z,6.15
2022-08-12T03:11:03.640Z,6.20
2022-08-12T03:13:33.238Z,6.20
2022-08-12T03:15:59.773Z,7.50
2022-08-12T03:18:31.900Z,6.13
2022-08-12T03:21:01.397Z,6.13
2022-08-12T03:23:31.024Z,5.55
2022-08-12T03:26:02.647Z,5.97
2022-08-12T03:28:54.198Z,5.82
2022-08-12T03:31:25.443Z,5.68
2022-08-12T03:34:02.355Z,5.55
2022-08-12T03:36:33.341Z,6.10
2022-08-12T03:39:20.131Z,6.38
2022-08-12T03:42:10.384Z,6.78
2022-08-12T03:45:17.399Z,6.50
2022-08-12T03:48:22.598Z,6.82
2022-08-12T03:51:07.895Z,6.43
2022-08-12T03:53:53.450Z,6.65
2022-08-12T03:56:38.734Z,6.90
2022-08-12T03:59:24.996Z,6.60
2022-08-12T04:01:57.047Z,6.68
2022-08-12T04:04:35.071Z,6.32
2022-08-12T04:07:09.168Z,6.35
2022-08-12T04:09:40.593Z,6.45
2022-08-12T04:12:26.727Z,6.18
2022-08-12T04:14:59.933Z,6.05
2022-08-12T04:17:28.578Z,6.25
2022-08-12T04:19:56.448Z,6.50
2022-08-12T04:22:25.634Z,7.22
2022-08-12T04:24:53.820Z,6.38
2022-08-12T04:27:20.438Z,7.70
2022-08-12T04:30:20.998Z,6.93
2022-08-12T04:32:36.838Z,6.95
2022-08-12T04:35:05.470Z,6.95
2022-08-12T04:37:58.333Z,6.35
2022-08-12T04:40:28.518Z,6.43
2022-08-12T04:42:55.864Z,6.80
2022-08-12T04:45:22.596Z,7.65
2022-08-12T04:47:49.437Z,6.60
2022-08-12T04:50:34.803Z,7.88
2022-08-12T04:53:06.656Z,7.25
2022-08-12T04:55:34.805Z,7.30
2022-08-12T04:58:01.452Z,7.15
2022-08-12T05:00:27.890Z,7.43
2022-08-12T05:02:54.414Z,7.07
2022-08-12T05:05:22.949Z,7.22
2022-08-12T05:07:54.218Z,7.65
2022-08-12T05:13:03.198Z,7.25
2022-08-12T05:15:30.354Z,7.32
2022-08-12T05:18:00.250Z,6.80
2022-08-12T05:20:29.503Z,9.10
2022-08-12T05:23:13.012Z,7.97
2022-08-12T05:25:44.879Z,7.43
2022-08-12T05:28:13.021Z,8.32
2022-08-12T05:30:41.282Z,8.38
2022-08-12T05:33:08.463Z,8.60
2022-08-12T05:35:40.063Z,8.48
2022-08-12T05:38:25.958Z,8.27
2022-08-12T05:40:52.533Z,8.88
2022-08-12T05:43:20.782Z,10.18
2022-08-12T05:45:47.616Z,9.25
2022-08-12T05:48:14.219Z,8.98
2022-08-12T05:50:41.978Z,8.82
2022-08-12T05:53:08.522Z,9.05
2022-08-12T05:55:36.357Z,8.82
2022-08-12T05:58:04.776Z,9.05
2022-08-12T06:00:32.218Z,8.50
2022-08-12T06:03:02.111Z,8.98
2022-08-12T06:05:29.984Z,9.32
2022-08-12T06:08:01.258Z,9.30
2022-08-12T06:10:32.519Z,10.05
2022-08-12T06:13:02.321Z,10.38
2022-08-12T06:15:29.517Z,9.45
2022-08-12T06:18:05.297Z,10.15
2022-08-12T06:20:41.402Z,10.45
2022-08-12T06:23:08.030Z,9.90
2022-08-12T06:25:34.527Z,9.98
2022-08-12T06:28:07.839Z,9.75
2022-08-12T06:30:38.673Z,9.20
2022-08-12T06:33:24.817Z,9.20
2022-08-12T06:35:57.524Z,8.52
2022-08-12T06:38:26.059Z,8.15
2022-08-12T06:41:13.785Z,8.23
2022-08-12T06:44:04.476Z,7.80
2022-08-12T06:46:28.935Z,6.72
2022-08-12T06:48:58.767Z,7.18
2022-08-12T06:51:30.168Z,6.63
2022-08-12T06:53:57.888Z,6.80
2022-08-12T06:56:39.888Z,6.57
2022-08-12T06:59:14.091Z,6.47
2022-08-12T07:01:40.583Z,6.65
2022-08-12T07:04:35.930Z,6.80
2022-08-12T07:07:04.569Z,5.97
2022-08-12T07:10:04.088Z,7.15
2022-08-12T07:12:19.669Z,6.28
2022-08-12T07:14:51.408Z,6.93
2022-08-12T07:19:46.764Z,5.88
2022-08-12T07:22:15.378Z,5.20
2022-08-12T07:24:42.208Z,5.65
2022-08-12T07:27:08.716Z,6.40
2022-08-12T07:30:03.547Z,5.57
2022-08-12T07:32:24.406Z,4.93
2022-08-12T07:34:50.994Z,4.95
2022-08-12T07:37:17.802Z,4.97
2022-08-12T07:39:50.811Z,5.20
2022-08-12T07:42:26.536Z,5.05
2022-08-12T07:44:53.273Z,5.53
2022-08-12T07:47:19.717Z,4.50
2022-08-12T07:50:04.878Z,4.95
2022-08-12T07:52:32.836Z,4.88
2022-08-12T07:55:00.210Z,4.60
2022-08-12T07:57:26.713Z,4.70
2022-08-12T07:59:55.657Z,4.20
2022-08-12T08:02:35.992Z,4.40
2022-08-12T08:05:03.650Z,4.10
2022-08-12T08:07:30.756Z,4.22
2022-08-12T08:09:59.437Z,4.25
2022-08-12T08:12:48.356Z,4.00
2022-08-12T08:15:16.382Z,4.47
2022-08-12T08:18:01.318Z,3.70
2022-08-12T08:20:29.849Z,3.78
2022-08-12T08:22:58.125Z,4.35
2022-08-12T08:25:35.581Z,4.38
2022-08-12T08:28:08.148Z,3.72
2022-08-12T08:30:38.191Z,3.70
2022-08-12T08:33:23.568Z,3.88
2022-08-12T08:35:54.278Z,3.28
2022-08-12T08:38:33.268Z,3.53
2022-08-12T08:42:15.824Z,3.03
2022-08-12T08:44:07.762Z,3.33
2022-08-12T08:46:37.397Z,3.03
2022-08-12T08:49:05.144Z,3.60
2022-08-12T08:51:31.653Z,3.30
2022-08-12T08:53:58.103Z,3.20
2022-08-12T08:56:24.543Z,2.90
2022-08-12T08:58:51.850Z,2.97
2022-08-12T09:01:22.361Z,3.30
2022-08-12T09:05:10.123Z,2.95
2022-08-12T09:06:37.732Z,3.60
2022-08-12T09:09:13.343Z,2.80
2022-08-12T09:12:10.604Z,2.70
2022-08-12T09:14:46.834Z,2.58
2022-08-12T09:17:20.833Z,2.63
2022-08-12T09:19:52.250Z,2.20
2022-08-12T09:22:29.186Z,2.50
2022-08-12T09:24:56.327Z,2.50
2022-08-12T09:27:57.789Z,2.60
2022-08-12T09:30:15.704Z,2.10
2022-08-12T09:33:04.680Z,2.80
2022-08-12T09:35:44.272Z,2.92
2022-08-12T09:38:29.929Z,2.40
2022-08-12T09:42:08.334Z,3.13
2022-08-12T09:44:06.539Z,2.60
2022-08-12T09:46:52.920Z,2.00
2022-08-12T09:49:19.422Z,2.00
2022-08-12T09:51:50.634Z,2.22
2022-08-12T09:54:33.901Z,2.05
2022-08-12T09:58:45.790Z,2.00
2022-08-12T10:00:17.148Z,2.38
2022-08-12T10:02:58.895Z,2.15
2022-08-12T10:06:26.531Z,1.80
2022-08-12T10:08:15.594Z,2.10
2022-08-12T10:11:05.920Z,2.00
2022-08-12T10:13:43.344Z,1.95
2022-08-12T10:16:18.733Z,2.00
2022-08-12T10:18:55.532Z,2.00
2022-08-12T10:21:36.350Z,1.90
2022-08-12T10:24:20.098Z,2.08
2022-08-12T10:27:05.881Z,2.10
2022-08-12T10:30:03.737Z,2.30
2022-08-12T10:32:45.540Z,1.90
2022-08-12T10:35:20.041Z,2.20
2022-08-12T10:38:33.600Z,2.00
2022-08-12T10:40:37.523Z,1.75
2022-08-12T10:43:22.571Z,2.25
2022-08-12T10:45:50.353Z,2.03
2022-08-12T10:48:27.099Z,1.75
2022-08-12T10:51:49.002Z,2.10
2022-08-12T10:53:52.487Z,2.03
2022-08-12T10:56:19.234Z,2.35
2022-08-12T10:58:47.216Z,1.92
2022-08-12T11:01:50.440Z,2.00
2022-08-12T11:04:24.693Z,1.98
2022-08-12T11:07:06.997Z,2.28
2022-08-12T11:09:55.947Z,1.80
2022-08-12T11:12:54.658Z,2.25
2022-08-12T11:15:19.468Z,2.08
2022-08-12T11:17:53.286Z,1.92
2022-08-12T11:20:20.818Z,1.77
2022-08-12T11:23:04.140Z,1.80
2022-08-12T11:25:58.315Z,1.67
2022-08-12T11:28:34.685Z,2.28
2022-08-12T11:31:05.073Z,1.83
2022-08-12T11:34:04.138Z,1.58
2022-08-12T11:36:17.889Z,1.73
2022-08-12T11:38:50.689Z,1.70
2022-08-12T11:41:31.462Z,1.45
2022-08-12T11:46:46.796Z,1.48
2022-08-12T11:49:26.923Z,1.60
2022-08-12T11:52:02.717Z,1.40
2022-08-12T11:54:30.207Z,1.60
2022-08-12T11:57:01.989Z,1.33
2022-08-12T12:02:20.520Z,1.60
2022-08-12T12:04:52.941Z,1.55
2022-08-12T12:08:35.968Z,1.58
2022-08-12T12:10:11.486Z,1.35
2022-08-12T12:12:37.997Z,1.60
2022-08-12T12:15:09.687Z,1.40
2022-08-12T12:17:38.468Z,1.48
2022-08-12T12:20:10.516Z,1.25
2022-08-12T12:22:39.571Z,1.60
2022-08-12T12:25:12.745Z,1.15
2022-08-12T12:28:04.530Z,1.42
2022-08-12T12:30:32.621Z,1.15
2022-08-12T12:32:59.435Z,1.10
2022-08-12T12:36:19.689Z,1.10
2022-08-12T12:38:14.196Z,1.20
2022-08-12T12:40:44.495Z,1.10
2022-08-12T12:43:12.760Z,1.38
2022-08-12T12:45:44.366Z,1.23
2022-08-12T12:48:17.389Z,1.08
2022-08-12T12:51:10.753Z,1.20
2022-08-12T12:54:07.619Z,1.42
2022-08-12T12:56:34.231Z,1.10
2022-08-12T12:59:03.423Z,1.20
2022-08-12T13:01:30.934Z,1.00
2022-08-12T13:04:02.564Z,1.42
2022-08-12T13:06:30.839Z,1.10
2022-08-12T13:09:03.063Z,1.40
2022-08-12T13:11:41.282Z,1.33
2022-08-12T13:14:28.651Z,1.40
2022-08-12T13:16:57.410Z,1.45
2022-08-12T13:19:25.465Z,1.30
2022-08-12T13:22:21.660Z,1.40
2022-08-12T13:24:55.736Z,0.98
2022-08-12T13:27:34.474Z,1.00
2022-08-12T13:30:06.553Z,1.48
2022-08-12T13:32:33.165Z,1.38
2022-08-12T13:35:04.683Z,1.38
2022-08-12T13:37:54.760Z,1.17
2022-08-12T13:40:29.589Z,1.20
2022-08-12T13:42:57.601Z,1.38
2022-08-12T13:45:29.059Z,1.17
2022-08-12T13:48:03.583Z,1.38
2022-08-12T13:50:40.446Z,1.50
2022-08-12T13:53:24.204Z,1.38
2022-08-12T13:56:01.530Z,1.48
2022-08-12T13:58:30.962Z,1.40
2022-08-12T14:01:04.542Z,1.40
2022-08-12T14:03:51.319Z,1.25
2022-08-12T14:06:17.396Z,1.30
2022-08-12T14:08:44.152Z,1.00
2022-08-12T14:11:12.532Z,1.38
2022-08-12T14:14:05.797Z,1.05
2022-08-12T14:16:37.905Z,1.58
2022-08-12T14:19:24.279Z,2.05
2022-08-12T14:21:58.829Z,1.73
2022-08-12T14:24:27.343Z,1.40
2022-08-12T14:26:57.394Z,1.23
2022-08-12T14:29:55.665Z,1.17
2022-08-12T14:32:16.401Z,1.40
2022-08-12T14:34:44.073Z,1.10
2022-08-12T14:37:13.112Z,1.30
2022-08-12T14:39:57.084Z,1.05
2022-08-12T14:42:23.654Z,1.20
2022-08-12T14:44:57.929Z,1.13
2022-08-12T14:47:26.752Z,1.33
2022-08-12T14:50:37.503Z,1.02
2022-08-12T14:54:14.138Z,1.30
2022-08-12T14:58:20.454Z,1.30
2022-08-12T15:01:06.715Z,1.95
2022-08-12T15:03:52.884Z,1.60
2022-08-12T15:06:43.819Z,1.40
2022-08-12T15:09:09.314Z,1.58
2022-08-12T15:11:54.880Z,1.40
2022-08-12T15:14:26.543Z,1.40
2022-08-12T15:16:54.154Z,1.40
2022-08-12T15:20:11.529Z,1.45
2022-08-12T15:22:38.265Z,1.38
2022-08-12T15:24:53.647Z,1.13
2022-08-12T15:27:22.512Z,1.60
2022-08-12T15:29:58.297Z,1.40
2022-08-12T15:32:31.731Z,1.58
2022-08-12T15:35:00.333Z,1.42
2022-08-12T15:38:09.065Z,1.42
2022-08-12T15:40:13.548Z,1.63
2022-08-12T15:42:40.023Z,1.25
2022-08-12T15:45:08.661Z,1.67
2022-08-12T15:47:49.521Z,1.50
2022-08-12T15:50:23.175Z,1.30
2022-08-12T15:52:54.012Z,1.60
2022-08-12T15:55:21.573Z,1.35
2022-08-12T15:57:53.391Z,1.60
2022-08-12T16:00:32.875Z,1.42
2022-08-12T16:03:02.177Z,1.75
2022-08-12T16:06:11.810Z,1.45
2022-08-12T16:08:27.604Z,1.50
2022-08-12T16:10:54.516Z,1.70
2022-08-12T16:13:32.222Z,1.70
2022-08-12T16:16:03.490Z,1.65
2022-08-12T16:18:33.289Z,1.55
2022-08-12T16:21:00.384Z,1.58
2022-08-12T16:23:52.151Z,1.48
2022-08-12T16:26:15.073Z,1.65
2022-08-12T16:28:42.695Z,1.58
2022-08-12T16:31:13.348Z,1.50
2022-08-12T16:33:58.695Z,1.83
2022-08-12T16:36:28.623Z,1.52
2022-08-12T16:38:55.010Z,1.75
2022-08-12T16:41:22.442Z,1.60
2022-08-12T16:43:49.117Z,1.70
2022-08-12T16:46:31.654Z,1.60
2022-08-12T16:48:59.533Z,1.60
2022-08-12T16:51:30.460Z,2.00
2022-08-12T16:54:04.063Z,1.73
2022-08-12T16:56:35.445Z,1.60
2022-08-12T16:59:16.160Z,1.70
2022-08-12T17:01:45.807Z,1.52
2022-08-12T17:04:12.704Z,2.00
2022-08-12T17:06:47.843Z,1.70
2022-08-12T17:09:17.965Z,1.98
2022-08-12T17:11:49.142Z,1.65
2022-08-12T17:14:23.152Z,1.63
2022-08-12T17:16:54.658Z,1.67
2022-08-12T17:20:02.643Z,1.70
2022-08-12T17:22:08.816Z,1.92
2022-08-12T17:24:38.287Z,2.05
2022-08-12T17:27:16.405Z,1.90
2022-08-12T17:30:02.970Z,1.73
2022-08-12T17:32:33.400Z,1.77
2022-08-12T17:35:18.608Z,2.00
2022-08-12T17:37:48.346Z,1.70
2022-08-12T17:40:34.598Z,1.80
2022-08-12T17:43:04.670Z,1.70
2022-08-12T17:45:52.595Z,1.88
2022-08-12T17:48:21.704Z,1.83
2022-08-12T17:50:50.698Z,1.38
2022-08-12T17:53:18.988Z,1.92
2022-08-12T17:55:51.639Z,2.00
2022-08-12T17:58:35.641Z,1.53
2022-08-12T18:01:04.355Z,1.77
2022-08-12T18:04:06.977Z,2.00
2022-08-12T18:06:17.989Z,1.98
2022-08-12T18:08:55.120Z,1.75
2022-08-12T18:12:05.453Z,1.67
2022-08-12T18:14:28.888Z,2.03
2022-08-12T18:16:56.868Z,1.85
2022-08-12T18:19:23.707Z,1.90
2022-08-12T18:22:02.069Z,1.92
2022-08-12T18:24:29.988Z,1.92
2022-08-12T18:26:56.569Z,1.75
2022-08-12T18:29:23.834Z,2.17
2022-08-12T18:31:58.812Z,2.00
2022-08-12T18:34:27.690Z,2.10
2022-08-12T18:36:55.589Z,1.63
2022-08-12T18:39:22.370Z,1.95
2022-08-12T18:41:49.752Z,2.00
2022-08-12T18:44:16.166Z,1.80
2022-08-12T18:46:55.731Z,1.90
2022-08-12T18:49:31.918Z,1.50
2022-08-12T18:52:04.701Z,2.10
2022-08-12T18:54:34.891Z,1.98
2022-08-12T18:57:06.923Z,1.67
2022-08-12T19:00:00.101Z,1.90
2022-08-12T19:02:31.982Z,2.03
2022-08-12T19:04:58.831Z,1.77
2022-08-12T19:07:29.564Z,1.63
2022-08-12T19:10:13.406Z,1.83
2022-08-12T19:12:59.436Z,1.67
2022-08-12T19:15:27.158Z,1.65
2022-08-12T19:18:01.141Z,1.70
2022-08-12T19:20:30.694Z,2.05
2022-08-12T19:22:59.813Z,1.63
2022-08-12T19:25:59.694Z,1.70
2022-08-12T19:28:29.985Z,1.60
2022-08-12T19:31:23.117Z,1.95
2022-08-12T19:36:55.946Z,1.90
2022-08-12T19:39:23.136Z,1.80
2022-08-12T19:42:01.328Z,1.73
2022-08-12T19:44:29.248Z,1.77
2022-08-12T19:46:56.048Z,1.95
2022-08-12T19:49:23.087Z,1.77
2022-08-12T19:51:49.581Z,2.05
2022-08-12T19:54:22.902Z,1.42
2022-08-12T19:56:52.143Z,2.10
2022-08-12T19:59:43.458Z,1.83
2022-08-12T20:02:21.628Z,1.63
2022-08-12T20:06:04.701Z,2.58
2022-08-12T20:07:56.751Z,2.33
2022-08-12T20:10:24.928Z,1.73
2022-08-12T20:13:19.123Z,1.58
2022-08-12T20:15:51.043Z,1.75
2022-08-12T20:18:53.442Z,1.67
2022-08-12T20:21:14.923Z,2.00
2022-08-12T20:24:00.468Z,2.15
2022-08-12T20:26:27.681Z,1.67
2022-08-12T20:28:54.773Z,1.50
2022-08-12T20:31:21.228Z,1.58
2022-08-12T20:33:50.732Z,1.60
2022-08-12T20:36:41.611Z,1.75
2022-08-12T20:39:34.085Z,1.60
2022-08-12T20:42:07.113Z,1.80
2022-08-12T20:44:36.328Z,1.88
2022-08-12T20:47:16.683Z,1.55
2022-08-12T20:49:45.791Z,1.58
2022-08-12T20:52:15.176Z,1.65
2022-08-12T20:54:50.093Z,1.60
2022-08-12T20:57:19.328Z,1.60
2022-08-12T20:59:48.204Z,1.60
2022-08-12T21:02:24.349Z,1.90
2022-08-12T21:05:20.176Z,1.60
2022-08-12T21:07:52.346Z,1.40
2022-08-12T21:10:20.957Z,1.60
2022-08-12T21:12:48.183Z,1.60
2022-08-12T21:15:23.152Z,1.70
2022-08-12T21:18:07.897Z,1.85
2022-08-12T21:20:38.344Z,1.88
2022-08-12T21:23:06.377Z,1.67
2022-08-12T21:25:44.775Z,2.00
2022-08-12T21:28:13.428Z,2.03
2022-08-12T21:31:11.405Z,1.90
2022-08-12T21:33:31.299Z,2.20
2022-08-12T21:35:58.167Z,2.28
2022-08-12T21:38:26.378Z,2.08
2022-08-12T21:41:09.004Z,2.63
2022-08-12T21:43:44.505Z,2.33
2022-08-12T21:46:14.967Z,2.30
2022-08-12T21:49:01.328Z,2.17
2022-08-12T21:51:49.608Z,2.40
2022-08-12T21:54:22.083Z,2.50
2022-08-12T21:59:17.831Z,2.22
2022-08-12T22:01:49.129Z,2.00
2022-08-12T22:04:34.811Z,2.10
2022-08-12T22:07:01.685Z,2.13
2022-08-12T22:09:29.477Z,1.80
2022-08-12T22:12:27.970Z,1.70
2022-08-12T22:14:54.458Z,2.20
2022-08-12T22:17:20.939Z,1.70
2022-08-12T22:19:50.420Z,2.22
2022-08-12T22:22:16.858Z,1.73
2022-08-12T22:24:45.458Z,1.80
2022-08-12T22:27:22.986Z,2.72
2022-08-12T22:30:19.589Z,1.80
2022-08-12T22:32:51.559Z,1.70
2022-08-12T22:35:47.634Z,1.88
2022-08-12T22:38:23.930Z,2.13
2022-08-12T22:41:00.584Z,1.75
2022-08-12T22:44:00.925Z,1.95
2022-08-12T22:46:51.816Z,1.92
2022-08-12T22:49:20.736Z,1.88
2022-08-12T22:52:01.347Z,2.03
2022-08-12T22:54:37.062Z,1.90
2022-08-12T22:57:05.128Z,1.90
2022-08-12T22:59:55.482Z,1.80
2022-08-12T23:02:29.104Z,1.77
2022-08-12T23:04:57.666Z,1.60
2022-08-12T23:07:24.191Z,1.75
2022-08-12T23:09:50.938Z,1.80
2022-08-12T23:12:46.935Z,2.03
2022-08-12T23:15:15.557Z,1.60
2022-08-12T23:17:42.617Z,1.88
2022-08-12T23:20:11.002Z,1.52
2022-08-12T23:22:38.356Z,1.75
2022-08-12T23:25:05.256Z,1.90
2022-08-12T23:27:55.894Z,1.58
2022-08-12T23:30:31.981Z,1.50
2022-08-12T23:33:19.798Z,1.60
2022-08-12T23:35:58.893Z,1.80
2022-08-12T23:38:32.313Z,1.90
2022-08-12T23:41:01.611Z,1.98
2022-08-12T23:43:39.472Z,1.60
2022-08-12T23:46:09.548Z,1.90
2022-08-12T23:48:37.400Z,1.42
2022-08-12T23:51:21.777Z,1.77
2022-08-12T23:53:50.507Z,1.48
2022-08-12T23:56:16.938Z,1.88
2022-08-12T23:58:49.593Z,1.90
